createdAt,value
2023-04-25T00:02:04.739Z,6.00
2023-04-25T00:04:34.257Z,5.90
2023-04-25T00:07:02.667Z,5.90
2023-04-25T00:09:29.579Z,5.90
2023-04-25T00:11:57.080Z,5.90
2023-04-25T00:14:24.249Z,5.90
2023-04-25T00:16:52.814Z,5.90
2023-04-25T00:19:19.652Z,5.90
2023-04-25T00:21:47.424Z,5.90
2023-04-25T00:24:14.625Z,5.90
2023-04-25T00:26:41.509Z,5.90
2023-04-25T00:29:08.454Z,5.90
2023-04-25T00:31:35.437Z,6.00
2023-04-25T00:34:02.549Z,6.00
2023-04-25T00:36:29.445Z,6.00
2023-04-25T00:38:56.883Z,6.00
2023-04-25T00:41:24.912Z,6.00
2023-04-25T00:43:53.175Z,6.10
2023-04-25T00:46:20.410Z,6.10
2023-04-25T00:48:47.282Z,6.10
2023-04-25T00:51:20.151Z,6.10
2023-04-25T00:53:49.478Z,6.20
2023-04-25T00:56:17.793Z,6.20
2023-04-25T00:58:45.143Z,6.20
2023-04-25T01:01:12.945Z,6.20
2023-04-25T01:03:44.087Z,6.20
2023-04-25T01:06:12.323Z,6.20
2023-04-25T01:08:40.649Z,6.20
2023-04-25T01:11:07.901Z,6.20
2023-04-25T01:13:36.458Z,6.20
2023-04-25T01:16:04.019Z,6.20
2023-04-25T01:18:31.128Z,6.10
2023-04-25T01:21:08.177Z,6.10
2023-04-25T01:23:35.583Z,6.10
2023-04-25T01:26:03.351Z,6.00
2023-04-25T01:28:30.744Z,6.00
2023-04-25T01:30:58.617Z,5.90
2023-04-25T01:33:26.102Z,5.90
2023-04-25T01:35:53.420Z,5.80
2023-04-25T01:38:20.828Z,5.80
2023-04-25T01:40:50.630Z,5.80
2023-04-25T01:43:20.279Z,5.70
2023-04-25T01:45:47.528Z,5.70
2023-04-25T01:48:15.586Z,5.60
2023-04-25T01:50:44.972Z,5.60
2023-04-25T01:53:15.031Z,5.60
2023-04-25T01:55:43.971Z,5.50
2023-04-25T01:58:14.557Z,5.50
2023-04-25T02:01:04.418Z,5.40
2023-04-25T02:03:40.649Z,5.40
2023-04-25T02:06:15.595Z,5.40
2023-04-25T02:08:45.317Z,5.40
2023-04-25T02:11:13.769Z,5.30
2023-04-25T02:13:47.306Z,5.30
2023-04-25T02:16:33.103Z,5.30
2023-04-25T02:19:01.682Z,5.30
2023-04-25T02:21:33.439Z,5.20
2023-04-25T02:24:00.891Z,5.20
2023-04-25T02:26:29.634Z,5.20
2023-04-25T02:28:57.872Z,5.20
2023-04-25T02:31:25.171Z,5.20
2023-04-25T02:33:53.348Z,5.10
2023-04-25T02:36:20.484Z,5.10
2023-04-25T02:38:49.264Z,5.20
2023-04-25T02:41:16.330Z,5.20
2023-04-25T02:43:43.120Z,5.20
2023-04-25T02:46:10.096Z,5.20
2023-04-25T02:48:36.941Z,5.20
2023-04-25T02:51:03.937Z,5.20
2023-04-25T02:53:31.012Z,5.20
2023-04-25T02:55:59.446Z,5.20
2023-04-25T02:58:26.449Z,5.10
2023-04-25T03:00:54.753Z,5.10
2023-04-25T03:03:24.656Z,5.10
2023-04-25T03:05:52.973Z,5.10
2023-04-25T03:08:26.293Z,5.10
2023-04-25T03:10:56.792Z,5.00
2023-04-25T03:13:25.322Z,5.00
2023-04-25T03:15:52.515Z,5.10
2023-04-25T03:18:19.614Z,5.00
2023-04-25T03:20:47.672Z,5.10
2023-04-25T03:23:15.555Z,5.00
2023-04-25T03:25:43.168Z,5.00
2023-04-25T03:28:10.213Z,5.00
2023-04-25T03:30:37.315Z,5.00
2023-04-25T03:33:04.505Z,5.00
2023-04-25T03:35:31.610Z,5.00
2023-04-25T03:37:58.499Z,4.90
2023-04-25T03:40:31.485Z,5.00
2023-04-25T03:43:17.212Z,5.00
2023-04-25T03:45:51.603Z,5.00
2023-04-25T03:48:26.704Z,5.00
2023-04-25T03:50:55.760Z,5.00
2023-04-25T03:53:22.926Z,5.10
2023-04-25T03:56:18.891Z,5.00
2023-04-25T03:58:47.511Z,5.00
2023-04-25T04:01:16.661Z,5.00
2023-04-25T04:03:43.659Z,5.00
2023-04-25T04:06:11.866Z,5.10
2023-04-25T04:08:44.242Z,5.10
2023-04-25T04:11:12.086Z,5.10
2023-04-25T04:13:39.260Z,5.20
2023-04-25T04:16:09.860Z,5.20
2023-04-25T04:18:37.491Z,5.20
2023-04-25T04:21:04.868Z,5.20
2023-04-25T04:23:35.197Z,5.20
2023-04-25T04:26:03.005Z,5.20
2023-04-25T04:28:52.869Z,5.20
2023-04-25T04:31:39.404Z,5.20
2023-04-25T04:34:07.027Z,5.20
2023-04-25T04:36:35.167Z,5.20
2023-04-25T04:39:03.532Z,5.20
2023-04-25T04:41:48.339Z,5.20
2023-04-25T04:44:33.771Z,5.20
2023-04-25T04:47:21.376Z,5.30
2023-04-25T04:50:12.287Z,5.30
2023-04-25T04:53:14.841Z,5.30
2023-04-25T04:56:05.172Z,5.30
2023-04-25T04:58:53.607Z,5.30
2023-04-25T05:01:44.229Z,5.30
2023-04-25T05:04:25.863Z,5.40
2023-04-25T05:07:03.420Z,5.40
2023-04-25T05:09:45.431Z,5.40
2023-04-25T05:12:18.051Z,5.50
2023-04-25T05:14:57.720Z,5.50
2023-04-25T05:17:34.262Z,5.50
2023-04-25T05:20:20.431Z,5.50
2023-04-25T05:23:06.071Z,5.50
2023-04-25T05:25:51.504Z,5.60
2023-04-25T05:28:32.288Z,5.50
2023-04-25T05:31:28.596Z,5.50
2023-04-25T05:34:14.892Z,5.50
2023-04-25T05:36:52.736Z,5.50
2023-04-25T05:39:20.117Z,5.50
2023-04-25T05:42:13.456Z,5.60
2023-04-25T05:44:49.418Z,5.60
2023-04-25T05:47:42.552Z,5.70
2023-04-25T05:50:23.279Z,5.70
2023-04-25T05:52:54.438Z,5.70
2023-04-25T05:55:27.822Z,5.80
2023-04-25T05:57:55.034Z,5.80
2023-04-25T06:00:23.836Z,5.90
2023-04-25T06:02:51.517Z,5.90
2023-04-25T06:05:19.455Z,5.90
2023-04-25T06:07:47.864Z,6.00
2023-04-25T06:10:15.180Z,6.00
2023-04-25T06:12:43.130Z,6.10
2023-04-25T06:15:24.221Z,6.10
2023-04-25T06:17:55.063Z,6.20
2023-04-25T06:20:25.224Z,6.20
2023-04-25T06:22:53.816Z,6.30
2023-04-25T06:25:25.338Z,6.30
2023-04-25T06:27:52.336Z,6.40
2023-04-25T06:30:23.553Z,6.40
2023-04-25T06:32:54.136Z,6.50
2023-04-25T06:35:21.955Z,6.50
2023-04-25T06:37:48.982Z,6.50
2023-04-25T06:40:21.854Z,6.50
2023-04-25T06:42:49.880Z,6.50
2023-04-25T06:45:55.603Z,6.50
2023-04-25T06:48:24.266Z,6.50
2023-04-25T06:50:53.257Z,6.50
2023-04-25T06:53:21.002Z,6.60
2023-04-25T06:55:52.996Z,6.70
2023-04-25T06:58:23.269Z,6.80
2023-04-25T07:00:50.220Z,6.80
2023-04-25T07:03:18.641Z,6.80
2023-04-25T07:05:47.224Z,6.80
2023-04-25T07:08:14.366Z,6.80
2023-04-25T07:10:42.134Z,6.90
2023-04-25T07:13:12.347Z,6.80
2023-04-25T07:15:39.561Z,6.80
2023-04-25T07:18:07.474Z,6.90
2023-04-25T07:20:34.767Z,6.90
2023-04-25T07:23:03.604Z,6.90
2023-04-25T07:25:31.618Z,6.90
2023-04-25T07:27:58.773Z,6.90
2023-04-25T07:30:26.752Z,6.90
2023-04-25T07:33:06.138Z,6.90
2023-04-25T07:35:45.273Z,7.00
2023-04-25T07:38:14.670Z,7.20
2023-04-25T07:40:42.129Z,7.40
2023-04-25T07:43:13.634Z,7.50
2023-04-25T07:46:00.095Z,7.70
2023-04-25T07:48:30.202Z,7.90
2023-04-25T07:51:02.437Z,8.10
2023-04-25T07:53:29.493Z,8.20
2023-04-25T07:56:01.990Z,8.20
2023-04-25T07:58:32.418Z,8.30
2023-04-25T08:01:02.189Z,8.30
2023-04-25T08:03:50.316Z,8.50
2023-04-25T08:06:36.535Z,8.40
2023-04-25T08:09:10.427Z,8.40
2023-04-25T08:11:40.217Z,8.50
2023-04-25T08:14:09.051Z,8.50
2023-04-25T08:16:36.886Z,8.60
2023-04-25T08:19:04.106Z,8.70
2023-04-25T08:21:31.720Z,8.80
2023-04-25T08:24:04.954Z,8.90
2023-04-25T08:26:36.108Z,9.00
2023-04-25T08:29:03.113Z,9.00
2023-04-25T08:31:30.271Z,9.10
2023-04-25T08:34:00.294Z,9.10
2023-04-25T08:36:42.366Z,9.20
2023-04-25T08:39:28.067Z,9.10
2023-04-25T08:42:19.058Z,8.90
2023-04-25T08:44:48.569Z,8.60
2023-04-25T08:47:15.702Z,8.60
2023-04-25T08:49:48.254Z,8.50
2023-04-25T08:52:28.813Z,8.50
2023-04-25T08:54:56.453Z,8.60
2023-04-25T08:57:26.728Z,8.70
2023-04-25T09:00:29.914Z,8.80
2023-04-25T09:02:58.029Z,9.10
2023-04-25T09:05:29.869Z,9.30
2023-04-25T09:07:57.607Z,9.50
2023-04-25T09:10:25.947Z,9.60
2023-04-25T09:13:07.920Z,9.60
2023-04-25T09:15:51.362Z,9.60
2023-04-25T09:18:38.865Z,9.70
2023-04-25T09:21:14.366Z,9.80
2023-04-25T09:23:51.544Z,10.00
2023-04-25T09:26:22.704Z,10.50
2023-04-25T09:29:05.285Z,11.00
2023-04-25T09:31:34.775Z,11.10
2023-04-25T09:34:04.857Z,11.10
2023-04-25T09:36:43.186Z,10.90
2023-04-25T09:39:23.478Z,10.60
2023-04-25T09:41:58.923Z,10.30
2023-04-25T09:44:26.478Z,10.20
2023-04-25T09:46:55.659Z,10.10
2023-04-25T09:49:31.766Z,10.20
2023-04-25T09:52:31.443Z,10.10
2023-04-25T09:55:09.752Z,10.20
2023-04-25T09:57:40.843Z,10.10
2023-04-25T10:00:13.763Z,10.10
2023-04-25T10:02:49.883Z,9.90
2023-04-25T10:05:36.813Z,9.80
2023-04-25T10:08:07.579Z,9.70
2023-04-25T10:10:37.487Z,9.70
2023-04-25T10:13:07.204Z,9.60
2023-04-25T10:15:39.712Z,9.50
2023-04-25T10:18:08.169Z,9.40
2023-04-25T10:20:35.470Z,9.50
2023-04-25T10:23:13.014Z,9.60
2023-04-25T10:25:41.372Z,9.80
2023-04-25T10:28:08.337Z,10.10
2023-04-25T10:30:35.580Z,10.40
2023-04-25T10:33:03.085Z,10.70
2023-04-25T10:35:35.047Z,10.80
2023-04-25T10:38:13.736Z,11.00
2023-04-25T10:40:41.172Z,11.00
2023-04-25T10:43:33.288Z,11.00
2023-04-25T10:46:04.637Z,11.00
2023-04-25T10:48:32.308Z,11.10
2023-04-25T10:51:37.136Z,11.10
2023-04-25T10:54:10.991Z,11.40
2023-04-25T10:56:42.842Z,11.80
2023-04-25T10:59:12.516Z,12.20
2023-04-25T11:01:47.143Z,12.20
2023-04-25T11:04:25.808Z,12.10
2023-04-25T11:07:04.484Z,12.10
2023-04-25T11:09:37.790Z,12.00
2023-04-25T11:12:05.425Z,12.00
2023-04-25T11:14:33.004Z,12.00
2023-04-25T11:17:01.307Z,11.80
2023-04-25T11:19:29.849Z,11.60
2023-04-25T11:22:03.385Z,11.50
2023-04-25T11:24:35.930Z,11.20
2023-04-25T11:27:04.989Z,10.70
2023-04-25T11:29:33.654Z,10.40
2023-04-25T11:32:02.267Z,10.30
2023-04-25T11:34:34.281Z,10.70
2023-04-25T11:37:03.553Z,11.30
2023-04-25T11:39:30.571Z,12.10
2023-04-25T11:41:57.707Z,12.50
2023-04-25T11:44:25.080Z,12.50
2023-04-25T11:46:52.504Z,12.50
2023-04-25T11:51:17.456Z,12.20
2023-04-25T11:52:08.435Z,12.00
2023-04-25T11:57:46.079Z,11.80
2023-04-25T12:00:21.766Z,11.60
2023-04-25T12:03:00.970Z,11.80
2023-04-25T12:05:33.160Z,12.10
2023-04-25T12:08:19.345Z,12.30
2023-04-25T12:10:47.206Z,13.00
2023-04-25T12:13:29.143Z,13.30
2023-04-25T12:15:57.238Z,13.80
2023-04-25T12:18:28.881Z,14.10
2023-04-25T12:20:56.486Z,14.00
2023-04-25T12:23:31.746Z,13.60
2023-04-25T12:26:03.866Z,13.10
2023-04-25T12:28:34.360Z,12.60
2023-04-25T12:31:04.191Z,12.30
2023-04-25T12:33:32.699Z,12.20
2023-04-25T12:36:01.120Z,12.10
2023-04-25T12:38:41.973Z,11.90
2023-04-25T12:41:09.737Z,11.90
2023-04-25T12:43:39.817Z,11.90
2023-04-25T12:46:06.755Z,11.90
2023-04-25T12:48:33.914Z,11.90
2023-04-25T12:51:01.410Z,11.80
2023-04-25T12:53:28.431Z,11.80
2023-04-25T12:58:22.803Z,11.80
2023-04-25T13:00:50.365Z,11.70
2023-04-25T13:03:17.916Z,11.60
2023-04-25T13:05:45.328Z,11.60
2023-04-25T13:08:12.824Z,12.10
2023-04-25T13:10:40.770Z,12.60
2023-04-25T13:13:07.725Z,13.20
2023-04-25T13:15:37.804Z,13.70
2023-04-25T13:18:06.733Z,13.90
2023-04-25T13:20:36.036Z,13.80
2023-04-25T13:23:03.384Z,13.80
2023-04-25T13:25:30.564Z,13.60
2023-04-25T13:27:57.540Z,13.50
2023-04-25T13:30:24.745Z,13.00
2023-04-25T13:32:53.072Z,12.60
2023-04-25T13:35:22.274Z,12.30
2023-04-25T13:37:49.338Z,12.20
2023-04-25T13:40:16.256Z,12.00
2023-04-25T13:42:45.255Z,12.30
2023-04-25T13:45:12.216Z,12.90
2023-04-25T13:47:39.346Z,13.50
2023-04-25T13:50:06.922Z,14.00
2023-04-25T13:52:34.261Z,14.20
2023-04-25T13:55:02.128Z,14.50
2023-04-25T13:57:28.981Z,14.60
2023-04-25T13:59:55.845Z,14.30
2023-04-25T14:02:23.121Z,14.10
2023-04-25T14:04:50.326Z,13.70
2023-04-25T14:07:17.554Z,13.40
2023-04-25T14:09:44.672Z,13.50
2023-04-25T14:12:12.372Z,13.70
2023-04-25T14:14:39.852Z,13.60
2023-04-25T14:17:07.588Z,13.50
2023-04-25T14:19:34.410Z,13.40
2023-04-25T14:22:01.465Z,13.10
2023-04-25T14:24:28.562Z,12.90
2023-04-25T14:26:55.554Z,12.50
2023-04-25T14:29:22.955Z,12.30
2023-04-25T14:31:50.465Z,12.10
2023-04-25T14:34:17.385Z,11.90
2023-04-25T14:36:44.474Z,11.70
2023-04-25T14:39:11.364Z,11.70
2023-04-25T14:41:38.649Z,11.70
2023-04-25T14:44:05.646Z,11.80
2023-04-25T14:46:32.904Z,11.80
2023-04-25T14:49:00.090Z,12.70
2023-04-25T14:51:27.567Z,13.90
2023-04-25T14:53:54.943Z,14.80
2023-04-25T14:56:21.977Z,15.00
2023-04-25T14:58:49.020Z,14.50
2023-04-25T15:01:16.240Z,13.90
2023-04-25T15:03:43.434Z,13.60
2023-04-25T15:06:13.874Z,13.20
2023-04-25T15:08:40.977Z,12.90
2023-04-25T15:11:08.376Z,12.80
2023-04-25T15:13:36.300Z,12.60
2023-04-25T15:16:03.166Z,12.50
2023-04-25T15:18:30.196Z,12.30
2023-04-25T15:20:57.791Z,12.30
2023-04-25T15:23:25.575Z,12.20
2023-04-25T15:25:53.665Z,12.10
2023-04-25T15:28:22.243Z,12.30
2023-04-25T15:30:49.792Z,12.40
2023-04-25T15:33:17.043Z,12.50
2023-04-25T15:35:44.135Z,12.70
2023-04-25T15:38:13.855Z,12.60
2023-04-25T15:40:41.839Z,12.40
2023-04-25T15:43:15.752Z,12.10
2023-04-25T15:45:43.157Z,12.10
2023-04-25T15:48:10.362Z,12.00
2023-04-25T15:50:37.335Z,12.10
2023-04-25T15:53:07.159Z,12.00
2023-04-25T15:55:35.060Z,11.90
2023-04-25T15:58:02.742Z,11.80
2023-04-25T16:00:29.999Z,11.70
2023-04-25T16:02:57.938Z,11.80
2023-04-25T16:05:24.859Z,11.80
2023-04-25T16:07:54.009Z,11.80
2023-04-25T16:10:21.697Z,11.60
2023-04-25T16:12:50.104Z,11.50
2023-04-25T16:15:17.937Z,11.30
2023-04-25T16:17:45.112Z,11.30
2023-04-25T16:20:14.354Z,11.10
2023-04-25T16:22:42.815Z,11.00
2023-04-25T16:25:11.060Z,11.00
2023-04-25T16:27:39.380Z,10.80
2023-04-25T16:30:08.655Z,10.70
2023-04-25T16:32:36.098Z,10.50
2023-04-25T16:35:04.277Z,10.50
2023-04-25T16:37:31.209Z,10.30
2023-04-25T16:39:58.278Z,10.30
2023-04-25T16:42:25.511Z,10.30
2023-04-25T16:44:52.295Z,10.30
2023-04-25T16:47:20.530Z,10.30
2023-04-25T16:49:47.826Z,10.40
2023-04-25T16:52:16.374Z,10.40
2023-04-25T16:54:43.472Z,10.40
2023-04-25T16:57:11.404Z,10.50
2023-04-25T16:59:39.480Z,10.50
2023-04-25T17:02:08.838Z,10.50
2023-04-25T17:04:36.023Z,10.50
2023-04-25T17:07:03.003Z,10.40
2023-04-25T17:09:30.035Z,10.40
2023-04-25T17:11:57.268Z,10.40
2023-04-25T17:14:24.192Z,10.40
2023-04-25T17:16:51.112Z,10.40
2023-04-25T17:19:27.421Z,10.40
2023-04-25T17:21:54.378Z,10.30
2023-04-25T17:24:21.999Z,10.20
2023-04-25T17:26:51.879Z,10.10
2023-04-25T17:29:19.321Z,10.10
2023-04-25T17:31:46.793Z,10.10
2023-04-25T17:34:17.865Z,10.10
2023-04-25T17:36:48.399Z,10.10
2023-04-25T17:39:17.523Z,10.10
2023-04-25T17:41:44.731Z,10.00
2023-04-25T17:44:11.995Z,9.90
2023-04-25T17:46:39.144Z,9.80
2023-04-25T17:49:18.284Z,9.80
2023-04-25T17:51:45.247Z,9.90
2023-04-25T17:54:12.336Z,9.80
2023-04-25T17:56:39.845Z,9.80
2023-04-25T17:59:07.154Z,9.70
2023-04-25T18:01:34.143Z,9.60
2023-04-25T18:04:04.128Z,9.50
2023-04-25T18:06:32.915Z,9.40
2023-04-25T18:09:00.114Z,9.20
2023-04-25T18:11:27.095Z,9.20
2023-04-25T18:13:54.191Z,9.10
2023-04-25T18:16:21.425Z,9.00
2023-04-25T18:18:53.474Z,8.90
2023-04-25T18:21:20.754Z,8.80
2023-04-25T18:23:47.963Z,8.80
2023-04-25T18:26:15.980Z,8.60
2023-04-25T18:28:42.888Z,8.60
2023-04-25T18:31:09.872Z,8.60
2023-04-25T18:33:36.827Z,8.50
2023-04-25T18:36:03.766Z,8.50
2023-04-25T18:41:10.721Z,8.40
2023-04-25T18:43:48.048Z,8.30
2023-04-25T18:46:15.074Z,8.30
2023-04-25T18:48:42.755Z,8.20
2023-04-25T18:51:17.145Z,8.20
2023-04-25T18:53:45.984Z,8.10
2023-04-25T18:56:15.566Z,8.10
2023-04-25T18:59:07.798Z,8.00
2023-04-25T19:01:34.684Z,7.90
2023-04-25T19:04:05.919Z,7.90
2023-04-25T19:06:33.745Z,7.80
2023-04-25T19:09:00.699Z,7.80
2023-04-25T19:11:28.016Z,7.70
2023-04-25T19:13:56.847Z,7.60
2023-04-25T19:16:26.523Z,7.60
2023-04-25T19:18:57.281Z,7.60
2023-04-25T19:21:24.261Z,7.50
2023-04-25T19:23:54.245Z,7.40
2023-04-25T19:26:22.211Z,7.40
2023-04-25T19:29:14.236Z,7.40
2023-04-25T19:31:42.887Z,7.30
2023-04-25T19:34:09.959Z,7.20
2023-04-25T19:36:38.815Z,7.10
2023-04-25T19:39:07.383Z,7.10
2023-04-25T19:41:36.576Z,7.00
2023-04-25T19:44:08.584Z,7.00
2023-04-25T19:46:38.460Z,7.00
2023-04-25T19:49:09.167Z,6.90
2023-04-25T19:51:38.733Z,6.90
2023-04-25T19:54:06.112Z,6.90
2023-04-25T19:56:35.322Z,6.90
2023-04-25T19:59:02.301Z,6.80
2023-04-25T20:01:29.521Z,6.80
2023-04-25T20:03:56.861Z,6.80
2023-04-25T20:06:24.528Z,6.70
2023-04-25T20:08:53.763Z,6.70
2023-04-25T20:11:21.964Z,6.60
2023-04-25T20:13:49.035Z,6.60
2023-04-25T20:16:21.055Z,6.50
2023-04-25T20:18:48.850Z,6.50
2023-04-25T20:21:17.125Z,6.40
2023-04-25T20:23:49.876Z,6.50
2023-04-25T20:26:16.673Z,6.40
2023-04-25T20:28:45.366Z,6.30
2023-04-25T20:31:12.653Z,6.30
2023-04-25T20:33:39.885Z,6.30
2023-04-25T20:36:06.933Z,6.20
2023-04-25T20:38:33.897Z,6.20
2023-04-25T20:41:00.984Z,6.10
2023-04-25T20:43:28.038Z,6.10
2023-04-25T20:45:55.199Z,6.10
2023-04-25T20:48:22.466Z,6.00
2023-04-25T20:50:49.733Z,5.90
2023-04-25T20:53:18.163Z,5.90
2023-04-25T20:55:45.164Z,5.90
2023-04-25T20:58:13.118Z,5.90
2023-04-25T21:00:40.119Z,5.80
2023-04-25T21:03:08.045Z,5.80
2023-04-25T21:05:38.365Z,5.70
2023-04-25T21:08:05.809Z,5.70
2023-04-25T21:10:32.750Z,5.70
2023-04-25T21:13:00.338Z,5.60
2023-04-25T21:15:27.662Z,5.60
2023-04-25T21:17:54.627Z,5.60
2023-04-25T21:20:22.160Z,5.60
2023-04-25T21:22:53.789Z,5.60
2023-04-25T21:25:25.479Z,5.60
2023-04-25T21:27:52.924Z,5.50
2023-04-25T21:30:23.503Z,5.50
2023-04-25T21:32:51.608Z,5.50
2023-04-25T21:35:20.954Z,5.40
2023-04-25T21:37:48.403Z,5.40
2023-04-25T21:40:15.751Z,5.40
2023-04-25T21:42:44.653Z,5.40
2023-04-25T21:45:12.248Z,5.30
2023-04-25T21:47:39.414Z,5.30
2023-04-25T21:50:08.070Z,5.30
2023-04-25T21:52:36.285Z,5.30
2023-04-25T21:55:03.452Z,5.30
2023-04-25T21:57:30.380Z,5.20
2023-04-25T21:59:57.391Z,5.20
2023-04-25T22:02:25.188Z,5.20
2023-04-25T22:04:52.598Z,5.20
2023-04-25T22:07:19.560Z,5.20
2023-04-25T22:09:54.498Z,5.20
2023-04-25T22:12:23.295Z,5.20
2023-04-25T22:14:50.592Z,5.20
2023-04-25T22:17:18.089Z,5.20
2023-04-25T22:19:45.472Z,5.20
2023-04-25T22:22:12.635Z,5.20
2023-04-25T22:24:43.066Z,5.20
2023-04-25T22:27:13.078Z,5.20
2023-04-25T22:29:40.226Z,5.10
2023-04-25T22:32:07.429Z,5.10
2023-04-25T22:34:34.309Z,5.20
2023-04-25T22:37:01.366Z,5.10
2023-04-25T22:39:28.365Z,5.10
2023-04-25T22:41:55.244Z,5.10
2023-04-25T22:44:22.413Z,5.10
2023-04-25T22:46:49.324Z,5.10
2023-04-25T22:49:16.114Z,5.00
2023-04-25T22:51:45.937Z,5.00
2023-04-25T22:54:12.821Z,5.00
2023-04-25T22:56:39.614Z,5.00
2023-04-25T22:59:06.563Z,4.90
2023-04-25T23:01:33.481Z,4.90
2023-04-25T23:04:02.590Z,4.80
2023-04-25T23:06:29.740Z,4.80
2023-04-25T23:08:56.605Z,4.70
2023-04-25T23:11:24.520Z,4.70
2023-04-25T23:13:51.852Z,4.70
2023-04-25T23:16:18.762Z,4.70
2023-04-25T23:18:45.872Z,4.80
2023-04-25T23:21:12.801Z,4.80
2023-04-25T23:23:39.993Z,4.70
2023-04-25T23:26:16.220Z,4.70
2023-04-25T23:28:43.104Z,4.70
2023-04-25T23:31:10.825Z,4.60
2023-04-25T23:33:37.797Z,4.60
2023-04-25T23:36:05.408Z,4.60
2023-04-25T23:38:32.777Z,4.60
2023-04-25T23:40:59.685Z,4.60
2023-04-25T23:43:26.592Z,4.60
2023-04-25T23:45:54.328Z,4.60
2023-04-25T23:48:21.224Z,4.50
2023-04-25T23:50:48.049Z,4.40
2023-04-25T23:53:15.235Z,4.30
2023-04-25T23:55:42.290Z,4.30
2023-04-25T23:58:09.167Z,4.30
